createdAt,value
2019-03-28T00:00:19.818Z,22.3
2019-03-28T00:01:09.836Z,22.3
2019-03-28T00:02:00.241Z,22.3
2019-03-28T00:02:49.653Z,22.3
2019-03-28T00:03:39.446Z,22.3
2019-03-28T00:04:29.229Z,22.3
2019-03-28T00:05:19.620Z,22.3
2019-03-28T00:06:10.455Z,22.3
2019-03-28T00:06:59.698Z,22.3
2019-03-28T00:07:50.295Z,22.3
2019-03-28T00:08:39.809Z,22.3
2019-03-28T00:09:30.430Z,22.3
2019-03-28T00:10:20.765Z,22.3
2019-03-28T00:11:10.364Z,22.3
2019-03-28T00:12:01.048Z,22.3
2019-03-28T00:12:50.393Z,22.3
2019-03-28T00:13:40.715Z,22.3
2019-03-28T00:14:30.790Z,22.3
2019-03-28T00:15:20.565Z,22.3
2019-03-28T00:16:10.911Z,22.3
2019-03-28T00:16:59.945Z,22.3
2019-03-28T00:17:50.348Z,22.3
2019-03-28T00:18:40.407Z,22.3
2019-03-28T00:19:30.213Z,22.3
2019-03-28T00:20:21.810Z,22.3
2019-03-28T00:21:10.032Z,22.3
2019-03-28T00:22:00.847Z,22.3
2019-03-28T00:22:50.717Z,22.3
2019-03-28T00:23:41.245Z,22.3
2019-03-28T00:24:31.327Z,22.3
2019-03-28T00:25:21.097Z,22.3
2019-03-28T00:26:11.167Z,22.3
2019-03-28T00:27:01.612Z,22.3
2019-03-28T00:27:52.054Z,22.3
2019-03-28T00:28:42.391Z,22.3
2019-03-28T00:29:32.280Z,22.3
2019-03-28T00:30:22.192Z,22.3
2019-03-28T00:31:12.604Z,22.3
2019-03-28T00:32:02.399Z,22.3
2019-03-28T00:32:52.288Z,22.3
2019-03-28T00:33:41.134Z,22.3
2019-03-28T00:34:32.049Z,22.3
2019-03-28T00:35:21.556Z,22.3
2019-03-28T00:36:11.866Z,22.2
2019-03-28T00:37:02.199Z,22.3
2019-03-28T00:37:52.749Z,22.2
2019-03-28T00:38:42.311Z,22.2
2019-03-28T00:39:32.026Z,22.2
2019-03-28T00:40:22.929Z,22.2
2019-03-28T00:41:12.242Z,22.2
2019-03-28T00:42:01.447Z,22.2
2019-03-28T00:42:53.109Z,22.2
2019-03-28T00:43:42.431Z,22.2
2019-03-28T00:44:32.941Z,22.2
2019-03-28T00:45:22.351Z,22.2
2019-03-28T00:46:12.791Z,22.2
2019-03-28T00:47:02.608Z,22.2
2019-03-28T00:47:53.183Z,22.2
2019-03-28T00:48:43.511Z,22.2
2019-03-28T00:49:33.298Z,22.2
2019-03-28T00:50:23.363Z,22.2
2019-03-28T00:51:13.213Z,22.2
2019-03-28T00:52:03.258Z,22.2
2019-03-28T00:52:53.854Z,22.2
2019-03-28T00:53:43.926Z,22.2
2019-03-28T00:54:33.939Z,22.1
2019-03-28T00:55:24.085Z,22.2
2019-03-28T00:56:13.801Z,22.2
2019-03-28T00:57:04.242Z,22.2
2019-03-28T00:57:53.458Z,22.1
2019-03-28T00:58:43.680Z,22.2
2019-03-28T00:59:34.400Z,22.1
2019-03-28T01:00:22.558Z,22.1
2019-03-28T01:01:13.675Z,22.1
2019-03-28T01:02:03.762Z,22.2
2019-03-28T01:02:53.560Z,22.1
2019-03-28T01:03:44.190Z,22.1
2019-03-28T01:04:33.927Z,22.1
2019-03-28T01:05:24.020Z,22.2
2019-03-28T01:06:13.496Z,22.1
2019-03-28T01:07:03.371Z,22.1
2019-03-28T01:07:53.952Z,22.2
2019-03-28T01:08:44.293Z,22.1
2019-03-28T01:09:34.927Z,22.1
2019-03-28T01:10:25.567Z,22.1
2019-03-28T01:11:15.520Z,22.1
2019-03-28T01:12:05.155Z,22.1
2019-03-28T01:12:55.540Z,22.1
2019-03-28T01:13:45.681Z,22.1
2019-03-28T01:14:35.044Z,22.1
2019-03-28T01:15:25.277Z,22.1
2019-03-28T01:16:15.152Z,22.1
2019-03-28T01:17:05.221Z,22.1
2019-03-28T01:17:56.124Z,22.1
2019-03-28T01:18:45.815Z,22.1
2019-03-28T01:19:35.694Z,22.1
2019-03-28T01:20:24.802Z,22.1
2019-03-28T01:21:15.428Z,22.1
2019-03-28T01:22:06.165Z,22.1
2019-03-28T01:22:56.204Z,22.1
2019-03-28T01:23:46.604Z,22.1
2019-03-28T01:24:35.304Z,22.1
2019-03-28T01:25:25.921Z,22.1
2019-03-28T01:26:15.969Z,22.1
2019-03-28T01:27:06.308Z,22.1
2019-03-28T01:27:56.532Z,22.1
2019-03-28T01:28:46.731Z,22.1
2019-03-28T01:29:36.398Z,22.1
2019-03-28T01:30:26.041Z,22.1
2019-03-28T01:31:16.371Z,22.1
2019-03-28T01:32:07.091Z,22.1
2019-03-28T01:32:57.047Z,22.1
2019-03-28T01:33:46.756Z,22.1
2019-03-28T01:34:37.050Z,22.1
2019-03-28T01:35:27.576Z,22.1
2019-03-28T01:36:17.473Z,22.1
2019-03-28T01:37:07.278Z,22.1
2019-03-28T01:37:57.123Z,22.1
2019-03-28T01:38:47.378Z,22.1
2019-03-28T01:39:37.849Z,22.1
2019-03-28T01:40:27.685Z,22.1
2019-03-28T01:41:17.704Z,22.1
2019-03-28T01:42:08.133Z,22.1
2019-03-28T01:42:57.070Z,22.1
2019-03-28T01:43:47.235Z,22.1
2019-03-28T01:44:37.059Z,22.1
2019-03-28T01:45:27.407Z,22.1
2019-03-28T01:46:17.131Z,22.1
2019-03-28T01:47:07.482Z,22.1
2019-03-28T01:47:56.153Z,22
2019-03-28T01:48:47.665Z,22.1
2019-03-28T01:49:37.395Z,22.1
2019-03-28T01:50:27.438Z,22.1
2019-03-28T01:51:17.492Z,22
2019-03-28T01:52:11.022Z,22
2019-03-28T01:52:58.190Z,22
2019-03-28T01:53:47.111Z,22
2019-03-28T01:54:37.766Z,22
2019-03-28T01:55:28.059Z,22
2019-03-28T01:56:18.420Z,22
2019-03-28T01:57:18.547Z,22
2019-03-28T01:57:58.245Z,22
2019-03-28T01:58:48.307Z,22
2019-03-28T01:59:38.364Z,22
2019-03-28T02:00:28.425Z,22
2019-03-28T02:01:18.214Z,22
2019-03-28T02:02:07.995Z,22
2019-03-28T02:02:58.908Z,22
2019-03-28T02:03:48.462Z,22
2019-03-28T02:04:38.761Z,22
2019-03-28T02:05:28.832Z,22
2019-03-28T02:06:18.581Z,22
2019-03-28T02:07:08.645Z,22
2019-03-28T02:07:58.159Z,22
2019-03-28T02:08:49.037Z,22
2019-03-28T02:09:39.429Z,22
2019-03-28T02:10:29.417Z,22
2019-03-28T02:11:19.879Z,22
2019-03-28T02:12:09.979Z,22
2019-03-28T02:13:00.254Z,22
2019-03-28T02:13:49.421Z,21.9
2019-03-28T02:14:40.279Z,22
2019-03-28T02:15:30.194Z,22
2019-03-28T02:16:19.021Z,22
2019-03-28T02:17:08.861Z,22
2019-03-28T02:17:59.133Z,21.9
2019-03-28T02:18:48.916Z,22
2019-03-28T02:19:40.092Z,21.9
2019-03-28T02:20:30.166Z,21.9
2019-03-28T02:21:19.981Z,21.9
2019-03-28T02:22:09.819Z,21.9
2019-03-28T02:22:59.860Z,21.9
2019-03-28T02:23:49.367Z,21.9
2019-03-28T02:24:39.418Z,21.9
2019-03-28T02:25:30.241Z,21.9
2019-03-28T02:26:19.744Z,21.9
2019-03-28T02:27:09.328Z,21.9
2019-03-28T02:27:59.958Z,21.9
2019-03-28T02:28:50.481Z,21.9
2019-03-28T02:29:40.034Z,21.9
2019-03-28T02:30:31.997Z,21.9
2019-03-28T02:31:22.295Z,21.9
2019-03-28T02:32:10.803Z,21.9
2019-03-28T02:33:01.450Z,21.9
2019-03-28T02:33:50.380Z,21.9
2019-03-28T02:34:40.453Z,21.9
2019-03-28T02:35:30.466Z,21.9
2019-03-28T02:36:21.178Z,21.9
2019-03-28T02:37:11.266Z,21.9
2019-03-28T02:38:01.037Z,21.9
2019-03-28T02:38:51.553Z,21.9
2019-03-28T02:39:41.085Z,21.9
2019-03-28T02:40:31.427Z,21.9
2019-03-28T02:41:21.257Z,21.9
2019-03-28T02:42:11.253Z,21.9
2019-03-28T02:43:01.688Z,21.9
2019-03-28T02:43:51.716Z,21.9
2019-03-28T02:44:42.913Z,21.9
2019-03-28T02:45:33.393Z,21.9
2019-03-28T02:46:20.997Z,21.9
2019-03-28T02:47:12.022Z,21.9
2019-03-28T02:48:02.997Z,21.9
2019-03-28T02:48:53.748Z,21.9
2019-03-28T02:49:42.063Z,21.9
2019-03-28T02:50:32.081Z,21.9
2019-03-28T02:51:22.497Z,21.9
2019-03-28T02:52:12.248Z,21.9
2019-03-28T02:53:01.463Z,21.9
2019-03-28T02:53:52.807Z,21.9
2019-03-28T02:54:42.759Z,21.9
2019-03-28T02:55:32.500Z,21.9
2019-03-28T02:56:23.067Z,21.9
2019-03-28T02:57:13.613Z,21.9
2019-03-28T02:58:02.371Z,21.9
2019-03-28T02:58:52.710Z,21.9
2019-03-28T02:59:42.801Z,21.9
2019-03-28T03:00:32.594Z,21.9
2019-03-28T03:01:23.214Z,21.9
2019-03-28T03:02:13.824Z,21.9
2019-03-28T03:03:03.415Z,21.9
2019-03-28T03:03:53.123Z,21.9
2019-03-28T03:07:23.736Z,21.9
2019-03-28T03:08:14.601Z,21.9
2019-03-28T03:09:05.163Z,21.9
2019-03-28T03:09:55.474Z,21.9
2019-03-28T03:10:44.747Z,21.9
2019-03-28T03:11:33.631Z,21.9
2019-03-28T03:12:23.826Z,21.9
2019-03-28T03:13:14.346Z,21.9
2019-03-28T03:14:04.646Z,21.9
2019-03-28T03:14:54.133Z,21.9
2019-03-28T03:15:44.754Z,21.9
2019-03-28T03:16:34.244Z,21.9
2019-03-28T03:17:24.043Z,21.9
2019-03-28T03:18:14.951Z,21.9
2019-03-28T03:19:05.661Z,21.9
2019-03-28T03:19:55.250Z,21.9
2019-03-28T03:20:45.636Z,21.9
2019-03-28T03:21:36.548Z,21.9
2019-03-28T03:22:24.661Z,21.9
2019-03-28T03:23:14.598Z,21.9
2019-03-28T03:24:05.161Z,21.8
2019-03-28T03:24:55.573Z,21.9
2019-03-28T03:25:44.774Z,21.9
2019-03-28T03:26:35.287Z,21.9
2019-03-28T03:27:25.330Z,21.9
2019-03-28T03:28:15.328Z,21.9
2019-03-28T03:29:05.540Z,21.9
2019-03-28T03:29:55.498Z,21.8
2019-03-28T03:30:45.675Z,21.8
2019-03-28T03:31:36.060Z,21.9
2019-03-28T03:32:25.977Z,21.8
2019-03-28T03:33:16.662Z,21.8
2019-03-28T03:34:08.714Z,21.8
2019-03-28T03:34:56.376Z,21.8
2019-03-28T03:35:46.214Z,21.8
2019-03-28T03:36:35.702Z,21.8
2019-03-28T03:37:25.267Z,21.8
2019-03-28T03:38:15.607Z,21.8
2019-03-28T03:39:05.739Z,21.8
2019-03-28T03:39:56.256Z,21.8
2019-03-28T03:40:46.007Z,21.8
2019-03-28T03:41:35.949Z,21.8
2019-03-28T03:42:26.425Z,21.8
2019-03-28T03:43:16.487Z,21.8
2019-03-28T03:44:06.889Z,21.8
2019-03-28T03:44:56.844Z,21.8
2019-03-28T03:45:46.972Z,21.8
2019-03-28T03:46:36.412Z,21.8
2019-03-28T03:47:26.580Z,21.8
2019-03-28T03:48:17.761Z,21.8
2019-03-28T03:49:07.508Z,21.8
2019-03-28T03:49:58.457Z,21.8
2019-03-28T03:50:46.494Z,21.8
2019-03-28T03:51:37.104Z,21.8
2019-03-28T03:52:26.868Z,21.8
2019-03-28T03:53:17.180Z,21.8
2019-03-28T03:54:06.992Z,21.8
2019-03-28T03:54:57.676Z,21.8
2019-03-28T03:55:47.644Z,21.8
2019-03-28T03:56:37.755Z,21.8
2019-03-28T03:57:27.777Z,21.8
2019-03-28T03:58:24.905Z,21.8
2019-03-28T03:59:07.312Z,21.8
2019-03-28T03:59:57.390Z,21.8
2019-03-28T04:00:47.801Z,21.8
2019-03-28T04:01:37.825Z,21.8
2019-03-28T04:02:27.046Z,21.8
2019-03-28T04:03:17.091Z,21.8
2019-03-28T04:04:08.044Z,21.8
2019-03-28T04:05:02.897Z,21.8
2019-03-28T04:05:48.357Z,21.8
2019-03-28T04:06:37.409Z,21.8
2019-03-28T04:07:28.014Z,21.8
2019-03-28T04:08:18.610Z,21.8
2019-03-28T04:09:08.633Z,21.8
2019-03-28T04:09:58.452Z,21.8
2019-03-28T04:10:48.150Z,21.8
2019-03-28T04:11:38.637Z,21.8
2019-03-28T04:12:29.170Z,21.8
2019-03-28T04:13:18.660Z,21.8
2019-03-28T04:14:09.105Z,21.8
2019-03-28T04:14:58.741Z,21.8
2019-03-28T04:15:48.603Z,21.8
2019-03-28T04:16:39.174Z,21.8
2019-03-28T04:17:28.918Z,21.8
2019-03-28T04:18:24.508Z,21.8
2019-03-28T04:19:08.922Z,21.8
2019-03-28T04:20:01.043Z,21.8
2019-03-28T04:20:48.951Z,21.8
2019-03-28T04:21:38.946Z,21.8
2019-03-28T04:22:29.578Z,21.8
2019-03-28T04:23:19.202Z,21.8
2019-03-28T04:24:09.801Z,21.8
2019-03-28T04:24:59.758Z,21.8
2019-03-28T04:25:49.660Z,21.8
2019-03-28T04:26:39.046Z,21.8
2019-03-28T04:27:29.660Z,21.8
2019-03-28T04:28:39.504Z,21.8
2019-03-28T04:29:10.304Z,21.8
2019-03-28T04:30:01.089Z,21.8
2019-03-28T04:30:49.707Z,21.8
2019-03-28T04:31:40.026Z,21.8
2019-03-28T04:32:30.038Z,21.8
2019-03-28T04:33:20.335Z,21.8
2019-03-28T04:34:15.966Z,21.8
2019-03-28T04:35:01.573Z,21.8
2019-03-28T04:35:51.636Z,21.8
2019-03-28T04:36:41.366Z,21.8
2019-03-28T04:37:30.375Z,21.8
2019-03-28T04:38:20.519Z,21.8
2019-03-28T04:39:10.485Z,21.8
2019-03-28T04:40:00.473Z,21.8
2019-03-28T04:40:50.873Z,21.8
2019-03-28T04:41:40.672Z,21.8
2019-03-28T04:42:30.419Z,21.8
2019-03-28T04:43:20.319Z,21.8
2019-03-28T04:44:10.646Z,21.8
2019-03-28T04:45:01.416Z,21.8
2019-03-28T04:45:50.889Z,21.8
2019-03-28T04:46:41.253Z,21.8
2019-03-28T04:47:31.338Z,21.8
2019-03-28T04:48:20.821Z,21.8
2019-03-28T04:49:11.138Z,21.8
2019-03-28T04:50:01.358Z,21.8
2019-03-28T04:50:51.263Z,21.8
2019-03-28T04:51:41.315Z,21.8
2019-03-28T04:52:34.846Z,21.8
2019-03-28T04:53:20.916Z,21.8
2019-03-28T04:54:14.325Z,21.8
2019-03-28T04:55:01.931Z,21.8
2019-03-28T04:55:52.126Z,21.8
2019-03-28T04:56:42.645Z,21.8
2019-03-28T04:57:32.980Z,21.8
2019-03-28T04:58:26.757Z,21.8
2019-03-28T04:59:12.128Z,21.8
2019-03-28T05:00:01.366Z,21.8
2019-03-28T05:00:52.105Z,21.8
2019-03-28T05:01:42.065Z,21.8
2019-03-28T05:02:33.382Z,21.8
2019-03-28T05:03:23.463Z,21.8
2019-03-28T05:04:12.668Z,21.8
2019-03-28T05:05:02.547Z,21.8
2019-03-28T05:05:52.365Z,21.8
2019-03-28T05:06:43.557Z,21.8
2019-03-28T05:07:31.895Z,21.8
2019-03-28T05:08:21.700Z,21.8
2019-03-28T05:09:12.612Z,21.8
2019-03-28T05:10:02.549Z,21.8
2019-03-28T05:10:52.955Z,21.8
2019-03-28T05:11:42.059Z,21.8
2019-03-28T05:12:33.091Z,21.8
2019-03-28T05:13:24.149Z,21.8
2019-03-28T05:14:14.239Z,21.8
2019-03-28T05:15:03.324Z,21.8
2019-03-28T05:15:53.364Z,21.8
2019-03-28T05:16:43.399Z,21.8
2019-03-28T05:17:32.882Z,21.8
2019-03-28T05:18:23.230Z,21.8
2019-03-28T05:19:13.311Z,21.8
2019-03-28T05:20:03.578Z,21.8
2019-03-28T05:20:53.679Z,21.8
2019-03-28T05:21:43.856Z,21.8
2019-03-28T05:22:33.551Z,21.8
2019-03-28T05:23:24.137Z,21.8
2019-03-28T05:24:13.393Z,21.8
2019-03-28T05:25:05.119Z,21.9
2019-03-28T05:25:54.844Z,21.9
2019-03-28T05:26:44.846Z,21.9
2019-03-28T05:27:34.476Z,21.9
2019-03-28T05:28:24.074Z,21.9
2019-03-28T05:29:14.294Z,21.9
2019-03-28T05:30:07.068Z,21.9
2019-03-28T05:30:54.131Z,21.9
2019-03-28T05:31:44.198Z,21.9
2019-03-28T05:32:34.058Z,21.9
2019-03-28T05:33:24.575Z,21.9
2019-03-28T05:34:14.851Z,21.9
2019-03-28T05:35:05.603Z,21.9
2019-03-28T05:35:55.195Z,21.9
2019-03-28T05:36:45.845Z,21.9
2019-03-28T05:37:34.385Z,21.9
2019-03-28T05:38:24.213Z,21.9
2019-03-28T05:39:14.543Z,21.9
2019-03-28T05:40:05.238Z,21.9
2019-03-28T05:40:54.597Z,21.9
2019-03-28T05:41:44.322Z,21.9
2019-03-28T05:42:35.255Z,21.9
2019-03-28T05:43:24.772Z,21.9
2019-03-28T05:44:15.105Z,21.9
2019-03-28T05:45:05.435Z,21.9
2019-03-28T05:45:55.253Z,21.9
2019-03-28T05:46:45.559Z,21.9
2019-03-28T05:47:36.283Z,21.9
2019-03-28T05:48:25.130Z,21.9
2019-03-28T05:49:15.465Z,21.9
2019-03-28T05:50:05.849Z,21.9
2019-03-28T05:50:55.209Z,21.9
2019-03-28T05:51:45.653Z,21.9
2019-03-28T05:52:35.357Z,21.8
2019-03-28T05:53:26.525Z,21.8
2019-03-28T05:54:14.817Z,21.8
2019-03-28T05:55:09.072Z,21.8
2019-03-28T05:55:55.487Z,21.8
2019-03-28T05:56:46.277Z,21.8
2019-03-28T05:57:36.047Z,21.8
2019-03-28T05:58:26.402Z,21.8
2019-03-28T05:59:17.650Z,21.8
2019-03-28T06:00:06.745Z,21.7
2019-03-28T06:00:57.628Z,21.7
2019-03-28T06:01:46.609Z,21.7
2019-03-28T06:02:36.734Z,21.7
2019-03-28T06:03:26.189Z,21.6
2019-03-28T06:05:24.056Z,21.6
2019-03-28T06:06:14.040Z,21.6
2019-03-28T06:07:18.210Z,21.6
2019-03-28T06:07:53.597Z,21.6
2019-03-28T06:08:59.169Z,21.6
2019-03-28T06:09:49.084Z,21.6
2019-03-28T06:10:23.779Z,21.6
2019-03-28T06:11:14.321Z,21.6
2019-03-28T06:12:04.185Z,21.6
2019-03-28T06:13:08.668Z,21.6
2019-03-28T06:13:44.871Z,21.6
2019-03-28T06:14:34.649Z,21.6
2019-03-28T06:15:24.428Z,21.6
2019-03-28T06:16:14.215Z,21.6
2019-03-28T06:17:18.646Z,21.6
2019-03-28T06:17:56.331Z,21.6
2019-03-28T06:18:44.963Z,21.6
2019-03-28T06:19:35.181Z,21.6
2019-03-28T06:20:24.205Z,21.6
2019-03-28T06:21:15.029Z,21.6
2019-03-28T06:22:05.163Z,21.6
2019-03-28T06:22:54.968Z,21.6
2019-03-28T06:23:45.241Z,21.6
2019-03-28T06:24:35.882Z,21.6
2019-03-28T06:25:28.093Z,21.6
2019-03-28T06:26:16.152Z,21.6
2019-03-28T06:27:04.763Z,21.6
2019-03-28T06:27:55.205Z,21.6
2019-03-28T06:28:44.371Z,21.6
2019-03-28T06:29:34.935Z,21.6
2019-03-28T06:30:25.209Z,21.6
2019-03-28T06:31:16.645Z,21.6
2019-03-28T06:32:06.834Z,21.6
2019-03-28T06:32:58.702Z,21.6
2019-03-28T06:33:45.457Z,21.6
2019-03-28T06:34:35.291Z,21.6
2019-03-28T06:35:28.690Z,21.6
2019-03-28T06:36:17.272Z,21.6
2019-03-28T06:37:07.003Z,21.6
2019-03-28T06:37:59.459Z,21.6
2019-03-28T06:38:46.072Z,21.6
2019-03-28T06:39:39.016Z,21.6
2019-03-28T06:40:26.479Z,21.6
2019-03-28T06:41:16.045Z,21.6
2019-03-28T06:42:05.879Z,21.6
2019-03-28T06:42:56.401Z,21.6
2019-03-28T06:43:47.727Z,21.6
2019-03-28T06:44:36.251Z,21.6
2019-03-28T06:45:26.614Z,21.6
2019-03-28T06:46:16.970Z,21.6
2019-03-28T06:47:06.150Z,21.5
2019-03-28T06:47:56.771Z,21.5
2019-03-28T06:48:46.004Z,21.5
2019-03-28T06:49:36.119Z,21.5
2019-03-28T06:50:26.749Z,21.5
2019-03-28T06:51:16.992Z,21.5
2019-03-28T06:52:07.071Z,21.5
2019-03-28T06:52:57.366Z,21.5
2019-03-28T06:53:47.138Z,21.5
2019-03-28T06:54:37.078Z,21.5
2019-03-28T06:55:30.814Z,21.5
2019-03-28T06:56:18.373Z,21.5
2019-03-28T06:57:07.151Z,21.5
2019-03-28T06:57:57.536Z,21.5
2019-03-28T06:58:46.965Z,21.5
2019-03-28T06:59:43.756Z,21.5
2019-03-28T07:00:27.158Z,21.5
2019-03-28T07:01:17.961Z,21.5
2019-03-28T07:02:07.458Z,21.5
2019-03-28T07:02:57.023Z,21.5
2019-03-28T07:05:31.005Z,21.4
2019-03-28T07:06:13.227Z,21.5
2019-03-28T07:07:03.568Z,21.4
2019-03-28T07:07:53.362Z,21.4
2019-03-28T07:08:43.775Z,21.5
2019-03-28T07:09:34.222Z,21.4
2019-03-28T07:10:23.995Z,21.4
2019-03-28T07:11:13.792Z,21.5
2019-03-28T07:12:03.643Z,21.4
2019-03-28T07:12:53.678Z,21.4
2019-03-28T07:13:44.040Z,21.5
2019-03-28T07:14:34.437Z,21.4
2019-03-28T07:15:24.800Z,21.4
2019-03-28T07:16:14.215Z,21.4
2019-03-28T07:17:04.272Z,21.4
2019-03-28T07:17:54.060Z,21.4
2019-03-28T07:18:44.390Z,21.4
2019-03-28T07:19:34.537Z,21.4
2019-03-28T07:20:23.670Z,21.4
2019-03-28T07:21:13.842Z,21.4
2019-03-28T07:22:04.290Z,21.4
2019-03-28T07:22:54.380Z,21.4
2019-03-28T07:23:44.974Z,21.4
2019-03-28T07:24:35.024Z,21.4
2019-03-28T07:25:28.412Z,21.4
2019-03-28T07:26:15.140Z,21.4
2019-03-28T07:27:04.423Z,21.4
2019-03-28T07:27:55.076Z,21.4
2019-03-28T07:28:44.266Z,21.4
2019-03-28T07:29:34.955Z,21.4
2019-03-28T07:30:25.591Z,21.4
2019-03-28T07:31:15.518Z,21.4
2019-03-28T07:32:05.367Z,21.4
2019-03-28T07:32:55.173Z,21.4
2019-03-28T07:33:45.476Z,21.4
2019-03-28T07:34:35.266Z,21.4
2019-03-28T07:35:24.851Z,21.5
2019-03-28T07:36:15.095Z,21.5
2019-03-28T07:37:05.438Z,21.5
2019-03-28T07:37:55.313Z,21.5
2019-03-28T07:38:45.534Z,21.5
2019-03-28T07:39:35.916Z,21.5
2019-03-28T07:40:26.623Z,21.5
2019-03-28T07:41:18.818Z,21.5
2019-03-28T07:42:05.706Z,21.5
2019-03-28T07:42:56.419Z,21.5
2019-03-28T07:43:46.603Z,21.5
2019-03-28T07:44:39.956Z,21.5
2019-03-28T07:45:27.518Z,21.5
2019-03-28T07:46:16.341Z,21.5
2019-03-28T07:47:07.042Z,21.5
2019-03-28T07:47:57.620Z,21.5
2019-03-28T07:48:46.833Z,21.5
2019-03-28T07:49:39.684Z,21.5
2019-03-28T07:50:27.126Z,21.5
2019-03-28T07:51:17.203Z,21.5
2019-03-28T07:52:07.752Z,21.5
2019-03-28T07:52:58.025Z,21.5
2019-03-28T07:53:48.416Z,21.5
2019-03-28T07:54:37.175Z,21.5
2019-03-28T07:55:27.220Z,21.5
2019-03-28T07:56:17.277Z,21.5
2019-03-28T07:57:07.740Z,21.5
2019-03-28T07:57:57.107Z,21.5
2019-03-28T07:58:50.832Z,21.5
2019-03-28T07:59:37.827Z,21.5
2019-03-28T08:00:27.844Z,21.5
2019-03-28T08:01:21.407Z,21.5
2019-03-28T08:02:07.434Z,21.5
2019-03-28T08:03:01.769Z,21.5
2019-03-28T08:03:48.107Z,21.5
2019-03-28T08:04:37.892Z,21.5
2019-03-28T08:05:27.596Z,21.5
2019-03-28T08:06:20.567Z,21.5
2019-03-28T08:07:07.336Z,21.5
2019-03-28T08:07:58.409Z,21.5
2019-03-28T08:08:49.959Z,21.5
2019-03-28T08:09:43.211Z,21.5
2019-03-28T08:10:28.010Z,21.5
2019-03-28T08:11:19.148Z,21.6
2019-03-28T08:12:25.804Z,21.6
2019-03-28T08:12:58.473Z,21.5
2019-03-28T08:13:48.584Z,21.5
2019-03-28T08:14:38.671Z,21.6
2019-03-28T08:15:28.951Z,21.5
2019-03-28T08:16:17.924Z,21.5
2019-03-28T08:17:08.582Z,21.5
2019-03-28T08:17:59.113Z,21.5
2019-03-28T08:18:49.668Z,21.5
2019-03-28T08:19:43.713Z,21.5
2019-03-28T08:20:28.741Z,21.6
2019-03-28T08:21:19.380Z,21.5
2019-03-28T08:22:08.671Z,21.5
2019-03-28T08:22:58.729Z,21.5
2019-03-28T08:23:49.063Z,21.5
2019-03-28T08:24:38.828Z,21.5
2019-03-28T08:25:29.183Z,21.5
2019-03-28T08:26:19.226Z,21.6
2019-03-28T08:27:09.119Z,21.5
2019-03-28T08:28:02.882Z,21.5
2019-03-28T08:28:49.430Z,21.5
2019-03-28T08:29:39.503Z,21.5
2019-03-28T08:30:29.264Z,21.6
2019-03-28T08:31:20.750Z,21.5
2019-03-28T08:32:13.619Z,21.5
2019-03-28T08:33:00.443Z,21.5
2019-03-28T08:33:49.475Z,21.5
2019-03-28T08:34:39.843Z,21.5
2019-03-28T08:35:29.727Z,21.5
2019-03-28T08:36:19.715Z,21.5
2019-03-28T08:37:09.570Z,21.5
2019-03-28T08:38:00.137Z,21.5
2019-03-28T08:38:50.130Z,21.5
2019-03-28T08:39:40.182Z,21.5
2019-03-28T08:40:29.505Z,21.6
2019-03-28T08:41:21.120Z,21.5
2019-03-28T08:42:09.604Z,21.6
2019-03-28T08:42:59.933Z,21.6
2019-03-28T08:43:49.746Z,21.6
2019-03-28T08:44:40.985Z,21.5
2019-03-28T08:45:30.047Z,21.6
2019-03-28T08:46:20.684Z,21.6
2019-03-28T08:47:11.801Z,21.6
2019-03-28T08:48:00.567Z,21.6
2019-03-28T08:48:50.629Z,21.6
2019-03-28T08:49:40.641Z,21.6
2019-03-28T08:50:30.979Z,21.6
2019-03-28T08:51:20.777Z,21.6
2019-03-28T08:52:14.529Z,21.6
2019-03-28T08:53:00.685Z,21.6
2019-03-28T08:53:50.934Z,21.6
2019-03-28T08:54:41.009Z,21.6
2019-03-28T08:55:30.908Z,21.6
2019-03-28T08:56:20.671Z,21.6
2019-03-28T08:57:11.541Z,21.6
2019-03-28T08:58:01.567Z,21.6
2019-03-28T08:58:51.386Z,21.6
2019-03-28T08:59:41.646Z,21.6
2019-03-28T09:00:58.423Z,21.6
2019-03-28T09:01:21.851Z,21.6
2019-03-28T09:02:11.894Z,21.6
2019-03-28T09:03:01.593Z,21.6
2019-03-28T09:03:55.378Z,21.6
2019-03-28T09:04:42.493Z,21.6
2019-03-28T09:05:32.003Z,21.6
2019-03-28T09:06:23.741Z,21.6
2019-03-28T09:07:12.643Z,21.6
2019-03-28T09:08:02.723Z,21.6
2019-03-28T09:08:51.931Z,21.6
2019-03-28T09:09:42.828Z,21.6
2019-03-28T09:10:32.661Z,21.6
2019-03-28T09:11:26.281Z,21.6
2019-03-28T09:12:12.555Z,21.6
2019-03-28T09:13:02.811Z,21.6
2019-03-28T09:13:52.857Z,21.6
2019-03-28T09:14:43.059Z,21.6
2019-03-28T09:15:48.180Z,21.6
2019-03-28T09:16:23.055Z,21.6
2019-03-28T09:17:12.343Z,21.6
2019-03-28T09:18:05.630Z,21.6
2019-03-28T09:18:53.093Z,21.6
2019-03-28T09:19:44.763Z,21.6
2019-03-28T09:20:32.800Z,21.6
2019-03-28T09:21:23.247Z,21.6
2019-03-28T09:22:13.175Z,21.6
2019-03-28T09:23:03.604Z,21.6
2019-03-28T09:23:53.314Z,21.6
2019-03-28T09:24:43.382Z,21.6
2019-03-28T09:25:33.947Z,21.6
2019-03-28T09:26:24.025Z,21.6
2019-03-28T09:27:13.820Z,21.6
2019-03-28T09:28:03.605Z,21.6
2019-03-28T09:28:54.284Z,21.6
2019-03-28T09:29:43.171Z,21.6
2019-03-28T09:30:50.922Z,21.6
2019-03-28T09:31:26.628Z,21.6
2019-03-28T09:32:13.866Z,21.6
2019-03-28T09:33:03.579Z,21.6
2019-03-28T09:33:54.035Z,21.6
2019-03-28T09:34:44.385Z,21.6
2019-03-28T09:35:35.499Z,21.6
2019-03-28T09:36:24.952Z,21.6
2019-03-28T09:37:14.857Z,21.6
2019-03-28T09:38:04.349Z,21.6
2019-03-28T09:38:54.398Z,21.6
2019-03-28T09:39:44.742Z,21.6
2019-03-28T09:40:35.102Z,21.6
2019-03-28T09:41:24.659Z,21.6
2019-03-28T09:42:15.168Z,21.6
2019-03-28T09:43:04.799Z,21.6
2019-03-28T09:44:02.121Z,21.6
2019-03-28T09:44:45.367Z,21.6
2019-03-28T09:45:36.042Z,21.6
2019-03-28T09:46:24.444Z,21.6
2019-03-28T09:47:14.473Z,21.6
2019-03-28T09:48:05.147Z,21.6
2019-03-28T09:48:54.723Z,21.6
2019-03-28T09:49:45.228Z,21.6
2019-03-28T09:50:35.008Z,21.6
2019-03-28T09:51:25.078Z,21.6
2019-03-28T09:52:15.636Z,21.6
2019-03-28T09:53:06.721Z,21.6
2019-03-28T09:53:55.893Z,21.6
2019-03-28T09:54:44.951Z,21.6
2019-03-28T09:55:35.979Z,21.6
2019-03-28T09:56:26.004Z,21.6
2019-03-28T09:57:15.666Z,21.6
2019-03-28T09:58:06.057Z,21.7
2019-03-28T09:58:56.098Z,21.7
2019-03-28T09:59:46.195Z,21.6
2019-03-28T10:00:40.408Z,21.7
2019-03-28T10:01:26.025Z,21.7
2019-03-28T10:02:16.342Z,21.6
2019-03-28T10:03:05.758Z,21.7
2019-03-28T10:03:56.247Z,21.7
2019-03-28T10:06:23.520Z,21.6
2019-03-28T10:07:13.292Z,21.7
2019-03-28T10:08:03.543Z,21.7
2019-03-28T10:08:53.260Z,21.7
2019-03-28T10:09:46.289Z,21.7
2019-03-28T10:10:34.098Z,21.7
2019-03-28T10:11:22.818Z,21.7
2019-03-28T10:12:14.219Z,21.7
2019-03-28T10:13:03.993Z,21.7
2019-03-28T10:13:53.820Z,21.7
2019-03-28T10:14:44.373Z,21.7
2019-03-28T10:15:37.899Z,21.7
2019-03-28T10:16:24.510Z,21.7
2019-03-28T10:17:13.803Z,21.7
2019-03-28T10:18:04.138Z,21.7
2019-03-28T10:18:54.421Z,21.7
2019-03-28T10:19:45.794Z,21.7
2019-03-28T10:20:34.513Z,21.7
2019-03-28T10:21:24.601Z,21.7
2019-03-28T10:22:14.936Z,21.7
2019-03-28T10:23:04.988Z,21.7
2019-03-28T10:23:54.308Z,21.7
2019-03-28T10:24:45.088Z,21.7
2019-03-28T10:25:34.467Z,21.7
2019-03-28T10:26:24.913Z,21.7
2019-03-28T10:27:14.753Z,21.7
2019-03-28T10:28:04.890Z,21.7
2019-03-28T10:28:55.135Z,21.7
2019-03-28T10:29:44.903Z,21.7
2019-03-28T10:30:35.500Z,21.7
2019-03-28T10:31:25.082Z,21.7
2019-03-28T10:32:29.817Z,21.7
2019-03-28T10:33:05.267Z,21.7
2019-03-28T10:33:56.492Z,21.7
2019-03-28T10:34:45.157Z,21.7
2019-03-28T10:35:35.321Z,21.7
2019-03-28T10:36:28.803Z,21.7
2019-03-28T10:37:15.455Z,21.7
2019-03-28T10:38:06.077Z,21.7
2019-03-28T10:38:55.843Z,21.8
2019-03-28T10:39:45.730Z,21.7
2019-03-28T10:40:36.333Z,21.7
2019-03-28T10:41:30.814Z,21.7
2019-03-28T10:42:16.347Z,21.7
2019-03-28T10:43:06.203Z,21.7
2019-03-28T10:43:56.219Z,21.7
2019-03-28T10:44:46.540Z,21.7
2019-03-28T10:45:39.956Z,21.7
2019-03-28T10:46:26.368Z,21.7
2019-03-28T10:47:16.009Z,21.7
2019-03-28T10:48:06.764Z,21.7
2019-03-28T10:49:00.282Z,21.7
2019-03-28T10:49:47.761Z,21.7
2019-03-28T10:50:51.764Z,21.8
2019-03-28T10:51:27.016Z,21.7
2019-03-28T10:52:18.524Z,21.8
2019-03-28T10:53:06.875Z,21.8
2019-03-28T10:53:57.244Z,21.7
2019-03-28T10:54:46.762Z,21.8
2019-03-28T10:55:36.661Z,21.8
2019-03-28T10:56:30.039Z,21.7
2019-03-28T10:57:36.938Z,21.8
2019-03-28T10:58:23.432Z,21.8
2019-03-28T10:58:56.827Z,21.8
2019-03-28T10:59:47.118Z,21.8
2019-03-28T11:00:36.920Z,21.8
2019-03-28T11:01:57.014Z,21.8
2019-03-28T11:02:18.851Z,21.8
2019-03-28T11:03:09.536Z,21.8
2019-03-28T11:03:58.443Z,21.8
2019-03-28T11:04:49.081Z,21.8
2019-03-28T11:05:37.616Z,21.8
2019-03-28T11:06:27.773Z,21.8
2019-03-28T11:07:17.891Z,21.8
2019-03-28T11:08:08.243Z,21.8
2019-03-28T11:08:57.804Z,21.8
2019-03-28T11:09:48.096Z,21.8
2019-03-28T11:10:37.900Z,21.8
2019-03-28T11:11:29.011Z,21.8
2019-03-28T11:12:18.325Z,21.8
2019-03-28T11:13:12.443Z,21.8
2019-03-28T11:13:58.103Z,21.8
2019-03-28T11:14:51.785Z,21.8